sensor_id;sensor_type;location;lat;lon;timestamp;P1;durP1;ratioP1;P2;durP2;ratioP2
53503;SDS011;39387;50.998;22.340;2023-05-10T00:00:25;3.28;;;2.20;;
53503;SDS011;39387;50.998;22.340;2023-05-10T00:03:09;4.43;;;2.70;;
53503;SDS011;39387;50.998;22.340;2023-05-10T00:05:37;3.97;;;2.17;;
53503;SDS011;39387;50.998;22.340;2023-05-10T00:08:04;3.97;;;2.22;;
53503;SDS011;39387;50.998;22.340;2023-05-10T00:10:32;3.47;;;2.50;;
53503;SDS011;39387;50.998;22.340;2023-05-10T00:12:59;3.88;;;2.10;;
53503;SDS011;39387;50.998;22.340;2023-05-10T00:15:26;5.05;;;2.63;;
53503;SDS011;39387;50.998;22.340;2023-05-10T00:17:55;5.00;;;2.25;;
53503;SDS011;39387;50.998;22.340;2023-05-10T00:20:24;2.35;;;1.80;;
53503;SDS011;39387;50.998;22.340;2023-05-10T00:22:52;3.10;;;2.10;;
53503;SDS011;39387;50.998;22.340;2023-05-10T00:25:19;2.88;;;2.08;;
53503;SDS011;39387;50.998;22.340;2023-05-10T00:27:48;4.13;;;2.45;;
53503;SDS011;39387;50.998;22.340;2023-05-10T00:30:15;3.10;;;2.25;;
53503;SDS011;39387;50.998;22.340;2023-05-10T00:32:43;4.25;;;2.25;;
53503;SDS011;39387;50.998;22.340;2023-05-10T00:35:10;5.35;;;2.20;;
53503;SDS011;39387;50.998;22.340;2023-05-10T00:37:39;3.92;;;2.10;;
53503;SDS011;39387;50.998;22.340;2023-05-10T00:40:07;4.10;;;2.00;;
53503;SDS011;39387;50.998;22.340;2023-05-10T00:42:35;4.03;;;2.53;;
53503;SDS011;39387;50.998;22.340;2023-05-10T00:45:03;3.95;;;2.20;;
53503;SDS011;39387;50.998;22.340;2023-05-10T00:47:31;4.13;;;2.70;;
53503;SDS011;39387;50.998;22.340;2023-05-10T00:49:58;3.92;;;2.28;;
53503;SDS011;39387;50.998;22.340;2023-05-10T00:52:27;4.88;;;2.70;;
53503;SDS011;39387;50.998;22.340;2023-05-10T00:54:56;6.95;;;2.58;;
53503;SDS011;39387;50.998;22.340;2023-05-10T00:57:23;4.43;;;2.70;;
53503;SDS011;39387;50.998;22.340;2023-05-10T00:59:51;4.18;;;2.35;;
53503;SDS011;39387;50.998;22.340;2023-05-10T01:02:18;3.85;;;2.45;;
53503;SDS011;39387;50.998;22.340;2023-05-10T01:04:46;4.63;;;2.63;;
53503;SDS011;39387;50.998;22.340;2023-05-10T01:07:13;3.90;;;2.67;;
53503;SDS011;39387;50.998;22.340;2023-05-10T01:09:41;4.07;;;2.28;;
53503;SDS011;39387;50.998;22.340;2023-05-10T01:12:09;4.40;;;2.50;;
53503;SDS011;39387;50.998;22.340;2023-05-10T01:14:37;4.40;;;2.47;;
53503;SDS011;39387;50.998;22.340;2023-05-10T01:17:04;4.05;;;2.80;;
53503;SDS011;39387;50.998;22.340;2023-05-10T01:19:34;3.60;;;2.25;;
53503;SDS011;39387;50.998;22.340;2023-05-10T01:22:05;4.53;;;2.50;;
53503;SDS011;39387;50.998;22.340;2023-05-10T01:31:00;3.50;;;2.22;;
53503;SDS011;39387;50.998;22.340;2023-05-10T01:33:33;3.78;;;2.17;;
53503;SDS011;39387;50.998;22.340;2023-05-10T01:36:03;3.47;;;2.40;;
53503;SDS011;39387;50.998;22.340;2023-05-10T01:38:36;6.78;;;3.70;;
53503;SDS011;39387;50.998;22.340;2023-05-10T01:41:10;5.20;;;3.15;;
53503;SDS011;39387;50.998;22.340;2023-05-10T01:43:43;4.25;;;2.53;;
53503;SDS011;39387;50.998;22.340;2023-05-10T01:46:16;5.32;;;2.83;;
53503;SDS011;39387;50.998;22.340;2023-05-10T01:48:48;4.35;;;2.67;;
53503;SDS011;39387;50.998;22.340;2023-05-10T01:51:20;4.50;;;2.67;;
53503;SDS011;39387;50.998;22.340;2023-05-10T01:53:49;4.97;;;2.78;;
53503;SDS011;39387;50.998;22.340;2023-05-10T01:56:19;3.20;;;2.38;;
53503;SDS011;39387;50.998;22.340;2023-05-10T01:58:47;4.00;;;2.60;;
53503;SDS011;39387;50.998;22.340;2023-05-10T02:01:15;5.10;;;2.40;;
53503;SDS011;39387;50.998;22.340;2023-05-10T02:03:43;3.67;;;2.55;;
53503;SDS011;39387;50.998;22.340;2023-05-10T02:06:13;4.13;;;2.47;;
53503;SDS011;39387;50.998;22.340;2023-05-10T02:08:41;4.20;;;2.05;;
53503;SDS011;39387;50.998;22.340;2023-05-10T02:11:11;3.72;;;2.47;;
53503;SDS011;39387;50.998;22.340;2023-05-10T02:13:40;4.15;;;2.20;;
53503;SDS011;39387;50.998;22.340;2023-05-10T02:16:09;4.13;;;2.25;;
53503;SDS011;39387;50.998;22.340;2023-05-10T02:18:36;3.15;;;2.20;;
53503;SDS011;39387;50.998;22.340;2023-05-10T02:21:04;4.13;;;2.28;;
53503;SDS011;39387;50.998;22.340;2023-05-10T02:23:33;4.07;;;2.50;;
53503;SDS011;39387;50.998;22.340;2023-05-10T02:26:02;4.88;;;2.10;;
53503;SDS011;39387;50.998;22.340;2023-05-10T02:28:31;5.22;;;2.83;;
53503;SDS011;39387;50.998;22.340;2023-05-10T02:30:59;7.25;;;2.72;;
53503;SDS011;39387;50.998;22.340;2023-05-10T02:33:26;4.00;;;2.28;;
53503;SDS011;39387;50.998;22.340;2023-05-10T02:35:55;3.85;;;2.50;;
53503;SDS011;39387;50.998;22.340;2023-05-10T02:38:22;3.95;;;2.40;;
53503;SDS011;39387;50.998;22.340;2023-05-10T02:40:56;4.30;;;2.30;;
53503;SDS011;39387;50.998;22.340;2023-05-10T02:43:24;4.50;;;2.42;;
53503;SDS011;39387;50.998;22.340;2023-05-10T02:45:51;4.68;;;2.67;;
53503;SDS011;39387;50.998;22.340;2023-05-10T02:48:19;4.65;;;2.40;;
53503;SDS011;39387;50.998;22.340;2023-05-10T02:50:46;4.80;;;2.28;;
53503;SDS011;39387;50.998;22.340;2023-05-10T02:53:18;3.97;;;2.20;;
53503;SDS011;39387;50.998;22.340;2023-05-10T02:55:49;4.03;;;2.22;;
53503;SDS011;39387;50.998;22.340;2023-05-10T02:58:19;4.18;;;2.13;;
53503;SDS011;39387;50.998;22.340;2023-05-10T03:00:46;4.10;;;2.47;;
53503;SDS011;39387;50.998;22.340;2023-05-10T03:03:14;4.32;;;2.50;;
53503;SDS011;39387;50.998;22.340;2023-05-10T03:05:41;3.92;;;1.88;;
53503;SDS011;39387;50.998;22.340;2023-05-10T03:08:08;3.75;;;2.20;;
53503;SDS011;39387;50.998;22.340;2023-05-10T03:10:37;3.10;;;2.20;;
53503;SDS011;39387;50.998;22.340;2023-05-10T03:13:10;3.97;;;2.30;;
53503;SDS011;39387;50.998;22.340;2023-05-10T03:15:48;3.42;;;2.20;;
53503;SDS011;39387;50.998;22.340;2023-05-10T03:18:20;4.25;;;2.60;;
53503;SDS011;39387;50.998;22.340;2023-05-10T03:20:50;4.78;;;2.47;;
53503;SDS011;39387;50.998;22.340;2023-05-10T03:23:21;3.30;;;2.28;;
53503;SDS011;39387;50.998;22.340;2023-05-10T03:25:51;4.20;;;2.58;;
53503;SDS011;39387;50.998;22.340;2023-05-10T03:28:19;2.97;;;2.00;;
53503;SDS011;39387;50.998;22.340;2023-05-10T03:30:49;4.50;;;2.30;;
53503;SDS011;39387;50.998;22.340;2023-05-10T03:33:16;2.78;;;2.10;;
53503;SDS011;39387;50.998;22.340;2023-05-10T03:35:44;3.75;;;2.13;;
53503;SDS011;39387;50.998;22.340;2023-05-10T03:38:12;4.70;;;2.30;;
53503;SDS011;39387;50.998;22.340;2023-05-10T03:40:39;3.03;;;2.10;;
53503;SDS011;39387;50.998;22.340;2023-05-10T03:43:07;3.42;;;1.92;;
53503;SDS011;39387;50.998;22.340;2023-05-10T03:45:34;3.40;;;2.30;;
53503;SDS011;39387;50.998;22.340;2023-05-10T03:48:03;3.25;;;2.40;;
53503;SDS011;39387;50.998;22.340;2023-05-10T03:50:31;3.47;;;2.38;;
53503;SDS011;39387;50.998;22.340;2023-05-10T03:52:58;4.50;;;2.20;;
53503;SDS011;39387;50.998;22.340;2023-05-10T03:55:26;6.38;;;2.53;;
53503;SDS011;39387;50.998;22.340;2023-05-10T03:57:53;4.85;;;2.80;;
53503;SDS011;39387;50.998;22.340;2023-05-10T04:00:21;8.68;;;3.35;;
53503;SDS011;39387;50.998;22.340;2023-05-10T04:02:48;4.88;;;3.30;;
53503;SDS011;39387;50.998;22.340;2023-05-10T04:05:17;4.20;;;2.78;;
53503;SDS011;39387;50.998;22.340;2023-05-10T04:07:44;5.10;;;2.83;;
53503;SDS011;39387;50.998;22.340;2023-05-10T04:10:12;3.75;;;2.30;;
53503;SDS011;39387;50.998;22.340;2023-05-10T04:12:41;4.38;;;2.58;;
53503;SDS011;39387;50.998;22.340;2023-05-10T04:15:09;3.42;;;2.38;;
53503;SDS011;39387;50.998;22.340;2023-05-10T04:17:36;5.05;;;2.60;;
53503;SDS011;39387;50.998;22.340;2023-05-10T04:20:04;4.90;;;2.60;;
53503;SDS011;39387;50.998;22.340;2023-05-10T04:22:34;4.95;;;2.70;;
53503;SDS011;39387;50.998;22.340;2023-05-10T04:25:02;4.72;;;3.15;;
53503;SDS011;39387;50.998;22.340;2023-05-10T04:27:30;4.93;;;2.80;;
53503;SDS011;39387;50.998;22.340;2023-05-10T04:29:58;4.88;;;2.80;;
53503;SDS011;39387;50.998;22.340;2023-05-10T04:32:25;5.60;;;2.78;;
53503;SDS011;39387;50.998;22.340;2023-05-10T04:34:53;4.70;;;2.45;;
53503;SDS011;39387;50.998;22.340;2023-05-10T04:37:20;4.25;;;2.72;;
53503;SDS011;39387;50.998;22.340;2023-05-10T04:39:50;4.60;;;2.78;;
53503;SDS011;39387;50.998;22.340;2023-05-10T04:42:17;4.90;;;2.60;;
53503;SDS011;39387;50.998;22.340;2023-05-10T04:44:45;4.82;;;2.17;;
53503;SDS011;39387;50.998;22.340;2023-05-10T04:47:12;3.58;;;2.00;;
53503;SDS011;39387;50.998;22.340;2023-05-10T04:49:40;3.72;;;1.88;;
53503;SDS011;39387;50.998;22.340;2023-05-10T04:52:07;2.80;;;1.80;;
53503;SDS011;39387;50.998;22.340;2023-05-10T04:54:34;2.63;;;1.42;;
53503;SDS011;39387;50.998;22.340;2023-05-10T04:57:03;3.17;;;1.85;;
53503;SDS011;39387;50.998;22.340;2023-05-10T04:59:31;2.95;;;2.00;;
53503;SDS011;39387;50.998;22.340;2023-05-10T05:01:58;5.47;;;2.70;;
53503;SDS011;39387;50.998;22.340;2023-05-10T05:04:25;3.05;;;2.22;;
53503;SDS011;39387;50.998;22.340;2023-05-10T05:06:53;3.40;;;2.67;;
53503;SDS011;39387;50.998;22.340;2023-05-10T05:09:21;4.13;;;2.42;;
53503;SDS011;39387;50.998;22.340;2023-05-10T05:11:48;6.05;;;3.13;;
53503;SDS011;39387;50.998;22.340;2023-05-10T05:14:17;2.88;;;2.00;;
53503;SDS011;39387;50.998;22.340;2023-05-10T05:16:46;2.78;;;2.10;;
53503;SDS011;39387;50.998;22.340;2023-05-10T05:19:13;3.10;;;2.20;;
53503;SDS011;39387;50.998;22.340;2023-05-10T05:21:41;3.15;;;2.25;;
53503;SDS011;39387;50.998;22.340;2023-05-10T05:24:09;2.60;;;2.30;;
53503;SDS011;39387;50.998;22.340;2023-05-10T05:26:37;3.10;;;2.40;;
53503;SDS011;39387;50.998;22.340;2023-05-10T05:29:05;3.25;;;2.08;;
53503;SDS011;39387;50.998;22.340;2023-05-10T05:31:35;2.55;;;2.35;;
53503;SDS011;39387;50.998;22.340;2023-05-10T05:34:02;3.00;;;2.33;;
53503;SDS011;39387;50.998;22.340;2023-05-10T05:36:29;3.33;;;2.55;;
53503;SDS011;39387;50.998;22.340;2023-05-10T05:38:58;3.08;;;2.33;;
53503;SDS011;39387;50.998;22.340;2023-05-10T05:41:26;3.08;;;2.45;;
53503;SDS011;39387;50.998;22.340;2023-05-10T05:43:53;3.00;;;2.35;;
53503;SDS011;39387;50.998;22.340;2023-05-10T05:46:20;3.20;;;2.20;;
53503;SDS011;39387;50.998;22.340;2023-05-10T05:48:49;3.45;;;2.28;;
53503;SDS011;39387;50.998;22.340;2023-05-10T05:51:17;2.75;;;2.22;;
53503;SDS011;39387;50.998;22.340;2023-05-10T05:53:44;4.50;;;2.72;;
53503;SDS011;39387;50.998;22.340;2023-05-10T05:56:12;3.45;;;2.35;;
53503;SDS011;39387;50.998;22.340;2023-05-10T05:58:39;3.78;;;2.08;;
53503;SDS011;39387;50.998;22.340;2023-05-10T06:01:07;3.58;;;2.28;;
53503;SDS011;39387;50.998;22.340;2023-05-10T06:03:34;3.13;;;2.03;;
53503;SDS011;39387;50.998;22.340;2023-05-10T06:06:03;3.35;;;2.38;;
53503;SDS011;39387;50.998;22.340;2023-05-10T06:08:31;3.05;;;2.30;;
53503;SDS011;39387;50.998;22.340;2023-05-10T06:10:59;2.60;;;2.08;;
53503;SDS011;39387;50.998;22.340;2023-05-10T06:13:27;2.20;;;2.00;;
53503;SDS011;39387;50.998;22.340;2023-05-10T06:18:24;4.47;;;2.10;;
53503;SDS011;39387;50.998;22.340;2023-05-10T06:20:52;3.53;;;2.35;;
53503;SDS011;39387;50.998;22.340;2023-05-10T06:23:20;3.28;;;2.30;;
53503;SDS011;39387;50.998;22.340;2023-05-10T06:25:48;2.83;;;2.10;;
53503;SDS011;39387;50.998;22.340;2023-05-10T06:28:15;3.15;;;2.15;;
53503;SDS011;39387;50.998;22.340;2023-05-10T06:30:43;4.22;;;2.10;;
53503;SDS011;39387;50.998;22.340;2023-05-10T06:33:10;3.22;;;2.10;;
53503;SDS011;39387;50.998;22.340;2023-05-10T06:35:37;2.08;;;1.88;;
53503;SDS011;39387;50.998;22.340;2023-05-10T06:38:04;3.10;;;2.03;;
53503;SDS011;39387;50.998;22.340;2023-05-10T06:40:33;4.00;;;2.30;;
53503;SDS011;39387;50.998;22.340;2023-05-10T06:43:01;2.90;;;2.08;;
53503;SDS011;39387;50.998;22.340;2023-05-10T06:45:29;3.80;;;2.00;;
53503;SDS011;39387;50.998;22.340;2023-05-10T06:47:56;2.58;;;2.03;;
53503;SDS011;39387;50.998;22.340;2023-05-10T06:50:23;3.13;;;2.20;;
53503;SDS011;39387;50.998;22.340;2023-05-10T06:52:51;3.47;;;2.10;;
53503;SDS011;39387;50.998;22.340;2023-05-10T06:55:18;3.60;;;2.10;;
53503;SDS011;39387;50.998;22.340;2023-05-10T06:57:47;2.58;;;2.10;;
53503;SDS011;39387;50.998;22.340;2023-05-10T07:00:15;2.65;;;2.08;;
53503;SDS011;39387;50.998;22.340;2023-05-10T07:02:42;3.03;;;1.90;;
53503;SDS011;39387;50.998;22.340;2023-05-10T07:05:10;2.72;;;2.05;;
53503;SDS011;39387;50.998;22.340;2023-05-10T07:07:37;1.90;;;1.58;;
53503;SDS011;39387;50.998;22.340;2023-05-10T07:10:05;2.85;;;2.22;;
53503;SDS011;39387;50.998;22.340;2023-05-10T07:12:33;3.25;;;2.42;;
53503;SDS011;39387;50.998;22.340;2023-05-10T07:15:02;2.60;;;2.20;;
53503;SDS011;39387;50.998;22.340;2023-05-10T07:17:30;2.78;;;2.00;;
53503;SDS011;39387;50.998;22.340;2023-05-10T07:19:58;3.15;;;2.40;;
53503;SDS011;39387;50.998;22.340;2023-05-10T07:22:26;4.60;;;2.40;;
53503;SDS011;39387;50.998;22.340;2023-05-10T07:24:54;2.35;;;1.65;;
53503;SDS011;39387;50.998;22.340;2023-05-10T07:27:21;2.38;;;1.77;;
53503;SDS011;39387;50.998;22.340;2023-05-10T07:29:49;2.22;;;1.95;;
53503;SDS011;39387;50.998;22.340;2023-05-10T07:32:17;2.72;;;2.00;;
53503;SDS011;39387;50.998;22.340;2023-05-10T07:34:45;3.72;;;2.00;;
53503;SDS011;39387;50.998;22.340;2023-05-10T07:37:12;2.05;;;1.63;;
53503;SDS011;39387;50.998;22.340;2023-05-10T07:39:39;2.03;;;1.38;;
53503;SDS011;39387;50.998;22.340;2023-05-10T07:42:07;2.22;;;1.50;;
53503;SDS011;39387;50.998;22.340;2023-05-10T07:44:35;2.63;;;1.73;;
53503;SDS011;39387;50.998;22.340;2023-05-10T07:47:02;2.80;;;1.90;;
53503;SDS011;39387;50.998;22.340;2023-05-10T07:49:31;2.40;;;1.65;;
53503;SDS011;39387;50.998;22.340;2023-05-10T07:51:59;2.55;;;1.48;;
53503;SDS011;39387;50.998;22.340;2023-05-10T07:54:26;1.70;;;1.50;;
53503;SDS011;39387;50.998;22.340;2023-05-10T07:56:53;2.35;;;1.60;;
53503;SDS011;39387;50.998;22.340;2023-05-10T07:59:21;4.13;;;1.30;;
53503;SDS011;39387;50.998;22.340;2023-05-10T08:01:48;2.42;;;1.55;;
53503;SDS011;39387;50.998;22.340;2023-05-10T08:04:16;2.38;;;1.50;;
53503;SDS011;39387;50.998;22.340;2023-05-10T08:06:44;2.15;;;1.50;;
53503;SDS011;39387;50.998;22.340;2023-05-10T08:09:12;1.70;;;1.30;;
53503;SDS011;39387;50.998;22.340;2023-05-10T08:11:39;3.78;;;1.60;;
53503;SDS011;39387;50.998;22.340;2023-05-10T08:14:06;1.95;;;1.40;;
53503;SDS011;39387;50.998;22.340;2023-05-10T08:16:34;1.45;;;1.30;;
53503;SDS011;39387;50.998;22.340;2023-05-10T08:19:01;1.70;;;1.40;;
53503;SDS011;39387;50.998;22.340;2023-05-10T08:21:28;1.73;;;1.48;;
53503;SDS011;39387;50.998;22.340;2023-05-10T08:23:58;1.90;;;1.42;;
53503;SDS011;39387;50.998;22.340;2023-05-10T08:26:25;2.05;;;1.40;;
53503;SDS011;39387;50.998;22.340;2023-05-10T08:28:53;1.85;;;1.48;;
53503;SDS011;39387;50.998;22.340;2023-05-10T08:31:20;2.97;;;1.27;;
53503;SDS011;39387;50.998;22.340;2023-05-10T08:33:48;1.90;;;1.55;;
53503;SDS011;39387;50.998;22.340;2023-05-10T08:36:16;1.88;;;1.30;;
53503;SDS011;39387;50.998;22.340;2023-05-10T08:38:47;2.63;;;1.50;;
53503;SDS011;39387;50.998;22.340;2023-05-10T08:41:17;1.77;;;1.15;;
53503;SDS011;39387;50.998;22.340;2023-05-10T08:46:14;2.67;;;1.40;;
53503;SDS011;39387;50.998;22.340;2023-05-10T08:48:43;1.95;;;1.30;;
53503;SDS011;39387;50.998;22.340;2023-05-10T08:51:11;4.05;;;1.48;;
53503;SDS011;39387;50.998;22.340;2023-05-10T08:53:41;3.67;;;1.58;;
53503;SDS011;39387;50.998;22.340;2023-05-10T08:56:08;2.20;;;1.38;;
53503;SDS011;39387;50.998;22.340;2023-05-10T08:58:37;1.83;;;1.30;;
53503;SDS011;39387;50.998;22.340;2023-05-10T09:01:05;2.53;;;1.60;;
53503;SDS011;39387;50.998;22.340;2023-05-10T09:03:32;1.80;;;1.40;;
53503;SDS011;39387;50.998;22.340;2023-05-10T09:05:59;5.00;;;1.50;;
53503;SDS011;39387;50.998;22.340;2023-05-10T09:08:27;3.55;;;1.58;;
53503;SDS011;39387;50.998;22.340;2023-05-10T09:10:56;2.20;;;2.00;;
53503;SDS011;39387;50.998;22.340;2023-05-10T09:13:24;1.63;;;1.50;;
53503;SDS011;39387;50.998;22.340;2023-05-10T09:15:53;1.70;;;1.40;;
53503;SDS011;39387;50.998;22.340;2023-05-10T09:18:20;1.98;;;1.30;;
53503;SDS011;39387;50.998;22.340;2023-05-10T09:20:48;1.65;;;1.20;;
53503;SDS011;39387;50.998;22.340;2023-05-10T09:23:15;1.52;;;1.30;;
53503;SDS011;39387;50.998;22.340;2023-05-10T09:25:42;1.73;;;1.20;;
53503;SDS011;39387;50.998;22.340;2023-05-10T09:28:10;2.65;;;1.25;;
53503;SDS011;39387;50.998;22.340;2023-05-10T09:30:38;2.95;;;1.52;;
53503;SDS011;39387;50.998;22.340;2023-05-10T09:33:07;4.10;;;2.63;;
53503;SDS011;39387;50.998;22.340;2023-05-10T09:35:34;3.38;;;2.00;;
53503;SDS011;39387;50.998;22.340;2023-05-10T09:38:03;4.28;;;2.42;;
53503;SDS011;39387;50.998;22.340;2023-05-10T09:40:31;2.95;;;1.48;;
53503;SDS011;39387;50.998;22.340;2023-05-10T09:42:59;2.00;;;1.30;;
53503;SDS011;39387;50.998;22.340;2023-05-10T09:45:28;3.20;;;1.50;;
53503;SDS011;39387;50.998;22.340;2023-05-10T09:47:56;1.75;;;1.30;;
53503;SDS011;39387;50.998;22.340;2023-05-10T09:50:25;2.13;;;1.40;;
53503;SDS011;39387;50.998;22.340;2023-05-10T09:52:54;1.80;;;1.55;;
53503;SDS011;39387;50.998;22.340;2023-05-10T09:55:24;2.15;;;1.23;;
53503;SDS011;39387;50.998;22.340;2023-05-10T09:57:58;1.85;;;1.20;;
53503;SDS011;39387;50.998;22.340;2023-05-10T10:00:27;1.40;;;1.30;;
53503;SDS011;39387;50.998;22.340;2023-05-10T10:02:56;1.20;;;1.10;;
53503;SDS011;39387;50.998;22.340;2023-05-10T10:05:29;1.30;;;1.20;;
53503;SDS011;39387;50.998;22.340;2023-05-10T10:07:57;1.67;;;1.15;;
53503;SDS011;39387;50.998;22.340;2023-05-10T10:10:25;1.40;;;1.30;;
53503;SDS011;39387;50.998;22.340;2023-05-10T10:12:52;1.63;;;1.27;;
53503;SDS011;39387;50.998;22.340;2023-05-10T10:15:20;2.22;;;1.40;;
53503;SDS011;39387;50.998;22.340;2023-05-10T10:17:48;2.63;;;1.77;;
53503;SDS011;39387;50.998;22.340;2023-05-10T10:20:15;1.67;;;1.35;;
53503;SDS011;39387;50.998;22.340;2023-05-10T10:22:45;1.50;;;1.35;;
53503;SDS011;39387;50.998;22.340;2023-05-10T10:25:13;1.73;;;1.50;;
53503;SDS011;39387;50.998;22.340;2023-05-10T10:27:43;2.95;;;1.50;;
53503;SDS011;39387;50.998;22.340;2023-05-10T10:30:21;2.75;;;1.70;;
53503;SDS011;39387;50.998;22.340;2023-05-10T10:33:01;2.38;;;1.40;;
53503;SDS011;39387;50.998;22.340;2023-05-10T10:35:37;1.45;;;1.20;;
53503;SDS011;39387;50.998;22.340;2023-05-10T10:38:07;1.42;;;1.30;;
53503;SDS011;39387;50.998;22.340;2023-05-10T10:40:34;2.63;;;1.70;;
53503;SDS011;39387;50.998;22.340;2023-05-10T10:46:09;1.70;;;1.35;;
53503;SDS011;39387;50.998;22.340;2023-05-10T10:48:38;2.70;;;1.45;;
53503;SDS011;39387;50.998;22.340;2023-05-10T10:51:06;3.45;;;1.60;;
53503;SDS011;39387;50.998;22.340;2023-05-10T10:53:34;1.77;;;1.20;;
53503;SDS011;39387;50.998;22.340;2023-05-10T10:56:05;1.92;;;1.40;;
53503;SDS011;39387;50.998;22.340;2023-05-10T10:58:35;2.13;;;1.40;;
53503;SDS011;39387;50.998;22.340;2023-05-10T11:01:12;2.20;;;1.45;;
53503;SDS011;39387;50.998;22.340;2023-05-10T11:03:41;1.40;;;1.20;;
53503;SDS011;39387;50.998;22.340;2023-05-10T11:06:28;1.45;;;1.10;;
53503;SDS011;39387;50.998;22.340;2023-05-10T11:08:58;1.77;;;1.67;;
53503;SDS011;39387;50.998;22.340;2023-05-10T11:11:26;2.85;;;1.60;;
53503;SDS011;39387;50.998;22.340;2023-05-10T11:13:53;1.65;;;1.40;;
53503;SDS011;39387;50.998;22.340;2023-05-10T11:16:29;1.80;;;1.35;;
53503;SDS011;39387;50.998;22.340;2023-05-10T11:19:09;1.48;;;1.38;;
53503;SDS011;39387;50.998;22.340;2023-05-10T11:21:44;1.63;;;1.20;;
53503;SDS011;39387;50.998;22.340;2023-05-10T11:24:14;3.60;;;1.35;;
53503;SDS011;39387;50.998;22.340;2023-05-10T11:26:42;2.97;;;1.50;;
53503;SDS011;39387;50.998;22.340;2023-05-10T11:29:12;3.08;;;1.40;;
53503;SDS011;39387;50.998;22.340;2023-05-10T11:31:43;2.05;;;1.40;;
53503;SDS011;39387;50.998;22.340;2023-05-10T11:34:13;1.77;;;1.30;;
53503;SDS011;39387;50.998;22.340;2023-05-10T11:36:50;1.45;;;1.25;;
53503;SDS011;39387;50.998;22.340;2023-05-10T11:39:21;1.40;;;1.20;;
53503;SDS011;39387;50.998;22.340;2023-05-10T11:41:48;1.80;;;1.20;;
53503;SDS011;39387;50.998;22.340;2023-05-10T11:44:16;1.65;;;1.27;;
53503;SDS011;39387;50.998;22.340;2023-05-10T11:46:43;2.67;;;1.55;;
53503;SDS011;39387;50.998;22.340;2023-05-10T11:49:11;1.60;;;1.20;;
53503;SDS011;39387;50.998;22.340;2023-05-10T11:51:38;1.65;;;1.52;;
53503;SDS011;39387;50.998;22.340;2023-05-10T11:54:08;2.97;;;1.48;;
53503;SDS011;39387;50.998;22.340;2023-05-10T11:56:37;1.58;;;1.20;;
53503;SDS011;39387;50.998;22.340;2023-05-10T11:59:06;1.25;;;1.15;;
53503;SDS011;39387;50.998;22.340;2023-05-10T12:01:33;2.13;;;1.42;;
53503;SDS011;39387;50.998;22.340;2023-05-10T12:04:01;2.42;;;1.20;;
53503;SDS011;39387;50.998;22.340;2023-05-10T12:06:29;1.60;;;1.30;;
53503;SDS011;39387;50.998;22.340;2023-05-10T12:08:57;1.48;;;1.23;;
53503;SDS011;39387;50.998;22.340;2023-05-10T12:11:25;2.25;;;1.25;;
53503;SDS011;39387;50.998;22.340;2023-05-10T12:13:55;1.30;;;1.02;;
53503;SDS011;39387;50.998;22.340;2023-05-10T12:16:23;1.52;;;1.30;;
53503;SDS011;39387;50.998;22.340;2023-05-10T12:18:51;2.08;;;1.10;;
53503;SDS011;39387;50.998;22.340;2023-05-10T12:21:20;1.35;;;1.25;;
53503;SDS011;39387;50.998;22.340;2023-05-10T12:23:48;1.25;;;1.15;;
53503;SDS011;39387;50.998;22.340;2023-05-10T12:26:17;1.85;;;1.40;;
53503;SDS011;39387;50.998;22.340;2023-05-10T12:28:44;2.08;;;1.48;;
53503;SDS011;39387;50.998;22.340;2023-05-10T12:31:13;1.33;;;1.15;;
53503;SDS011;39387;50.998;22.340;2023-05-10T12:33:41;1.45;;;1.25;;
53503;SDS011;39387;50.998;22.340;2023-05-10T12:36:09;1.40;;;1.20;;
53503;SDS011;39387;50.998;22.340;2023-05-10T12:38:37;2.60;;;1.17;;
53503;SDS011;39387;50.998;22.340;2023-05-10T12:41:08;1.77;;;1.15;;
53503;SDS011;39387;50.998;22.340;2023-05-10T12:43:37;1.52;;;1.23;;
53503;SDS011;39387;50.998;22.340;2023-05-10T12:46:05;1.67;;;1.40;;
53503;SDS011;39387;50.998;22.340;2023-05-10T12:48:35;1.77;;;1.40;;
53503;SDS011;39387;50.998;22.340;2023-05-10T12:51:03;3.63;;;1.23;;
53503;SDS011;39387;50.998;22.340;2023-05-10T12:53:34;1.67;;;1.40;;
53503;SDS011;39387;50.998;22.340;2023-05-10T12:56:02;2.17;;;1.27;;
53503;SDS011;39387;50.998;22.340;2023-05-10T12:58:30;1.30;;;1.20;;
53503;SDS011;39387;50.998;22.340;2023-05-10T13:00:57;2.33;;;1.30;;
53503;SDS011;39387;50.998;22.340;2023-05-10T13:03:25;1.83;;;1.20;;
53503;SDS011;39387;50.998;22.340;2023-05-10T13:05:54;2.80;;;1.42;;
53503;SDS011;39387;50.998;22.340;2023-05-10T13:08:21;1.30;;;1.20;;
53503;SDS011;39387;50.998;22.340;2023-05-10T13:10:49;1.42;;;1.10;;
53503;SDS011;39387;50.998;22.340;2023-05-10T13:13:17;1.35;;;1.10;;
53503;SDS011;39387;50.998;22.340;2023-05-10T13:15:44;2.10;;;1.52;;
53503;SDS011;39387;50.998;22.340;2023-05-10T13:18:12;1.90;;;1.10;;
53503;SDS011;39387;50.998;22.340;2023-05-10T13:20:39;1.38;;;1.10;;
53503;SDS011;39387;50.998;22.340;2023-05-10T13:23:08;1.55;;;1.20;;
53503;SDS011;39387;50.998;22.340;2023-05-10T13:25:35;1.40;;;1.25;;
53503;SDS011;39387;50.998;22.340;2023-05-10T13:28:03;2.10;;;1.30;;
53503;SDS011;39387;50.998;22.340;2023-05-10T13:30:31;3.15;;;1.08;;
53503;SDS011;39387;50.998;22.340;2023-05-10T13:32:58;1.30;;;1.00;;
53503;SDS011;39387;50.998;22.340;2023-05-10T13:35:25;1.92;;;1.25;;
53503;SDS011;39387;50.998;22.340;2023-05-10T13:37:53;2.72;;;1.20;;
53503;SDS011;39387;50.998;22.340;2023-05-10T13:40:24;2.22;;;1.02;;
53503;SDS011;39387;50.998;22.340;2023-05-10T13:42:52;1.90;;;1.13;;
53503;SDS011;39387;50.998;22.340;2023-05-10T13:45:19;1.25;;;1.00;;
53503;SDS011;39387;50.998;22.340;2023-05-10T13:47:47;1.33;;;1.23;;
53503;SDS011;39387;50.998;22.340;2023-05-10T13:50:14;1.80;;;1.15;;
53503;SDS011;39387;50.998;22.340;2023-05-10T13:52:42;3.45;;;1.00;;
53503;SDS011;39387;50.998;22.340;2023-05-10T13:55:10;2.28;;;1.25;;
53503;SDS011;39387;50.998;22.340;2023-05-10T13:57:53;1.77;;;1.20;;
53503;SDS011;39387;50.998;22.340;2023-05-10T14:00:20;2.83;;;1.30;;
53503;SDS011;39387;50.998;22.340;2023-05-10T14:02:48;1.35;;;1.20;;
53503;SDS011;39387;50.998;22.340;2023-05-10T14:05:16;1.05;;;0.95;;
53503;SDS011;39387;50.998;22.340;2023-05-10T14:07:44;1.50;;;1.10;;
53503;SDS011;39387;50.998;22.340;2023-05-10T14:10:12;1.20;;;1.10;;
53503;SDS011;39387;50.998;22.340;2023-05-10T14:12:40;1.20;;;1.10;;
53503;SDS011;39387;50.998;22.340;2023-05-10T14:15:10;1.50;;;1.30;;
53503;SDS011;39387;50.998;22.340;2023-05-10T14:17:38;1.55;;;1.25;;
53503;SDS011;39387;50.998;22.340;2023-05-10T14:20:06;1.20;;;1.00;;
53503;SDS011;39387;50.998;22.340;2023-05-10T14:22:34;3.25;;;1.48;;
53503;SDS011;39387;50.998;22.340;2023-05-10T14:25:02;1.63;;;1.30;;
53503;SDS011;39387;50.998;22.340;2023-05-10T14:27:31;1.23;;;1.13;;
53503;SDS011;39387;50.998;22.340;2023-05-10T14:29:58;3.08;;;1.17;;
53503;SDS011;39387;50.998;22.340;2023-05-10T14:32:28;1.90;;;1.10;;
53503;SDS011;39387;50.998;22.340;2023-05-10T14:34:57;2.47;;;1.27;;
53503;SDS011;39387;50.998;22.340;2023-05-10T14:37:25;2.03;;;1.23;;
53503;SDS011;39387;50.998;22.340;2023-05-10T14:39:53;1.13;;;0.90;;
53503;SDS011;39387;50.998;22.340;2023-05-10T14:42:20;1.42;;;1.20;;
53503;SDS011;39387;50.998;22.340;2023-05-10T14:44:48;2.40;;;1.20;;
53503;SDS011;39387;50.998;22.340;2023-05-10T14:47:16;1.60;;;1.10;;
53503;SDS011;39387;50.998;22.340;2023-05-10T14:49:45;1.35;;;1.17;;
53503;SDS011;39387;50.998;22.340;2023-05-10T14:55:34;1.50;;;1.30;;
53503;SDS011;39387;50.998;22.340;2023-05-10T14:58:04;2.17;;;1.27;;